Time;durP1;ratioP1;P1;durP2;ratioP2;P2;SDS_P1;SDS_P2;PMS_P1;PMS_P2;Temp;Humidity;BMP_temperature;BMP_pressure;BME280_temperature;BME280_humidity;BME280_pressure;Samples;Min_cycle;Max_cycle;Signal;HPM_P1;HPM_P2
2021/04/24 00:01:32;;;;;;;2.10;1.90;;;17.30;54.60;;;;;;5077424;28;20031;-36
2021/04/24 00:03:58;;;;;;;2.00;1.80;;;17.30;54.30;;;;;;5095264;28;20034;-36
2021/04/24 00:06:25;;;;;;;2.78;1.85;;;17.30;54.20;;;;;;5076503;28;20020;-36
2021/04/24 00:08:52;;;;;;;2.40;2.10;;;17.30;54.20;;;;;;5061049;28;20048;-36
2021/04/24 00:11:18;;;;;;;2.60;1.90;;;17.30;54.20;;;;;;5095332;28;20043;-36
2021/04/24 00:13:45;;;;;;;2.00;1.73;;;17.30;54.20;;;;;;5102452;28;20016;-36
2021/04/24 00:16:11;;;;;;;2.03;1.93;;;17.30;54.20;;;;;;5102353;28;20062;-37
2021/04/24 00:18:37;;;;;;;1.98;1.83;;;17.30;54.10;;;;;;5102621;28;20028;-36
2021/04/24 00:21:05;;;;;;;1.88;1.67;;;17.30;54.20;;;;;;5102636;28;20032;-36
2021/04/24 00:23:31;;;;;;;1.90;1.70;;;17.30;54.10;;;;;;5088649;28;20032;-36
2021/04/24 00:25:57;;;;;;;2.55;2.30;;;17.30;54.20;;;;;;5094888;28;20115;-36
2021/04/24 00:28:23;;;;;;;2.45;1.80;;;17.30;54.10;;;;;;5102202;28;20035;-36
2021/04/24 00:30:50;;;;;;;2.03;1.83;;;17.30;54.20;;;;;;5102168;28;20044;-36
2021/04/24 00:33:16;;;;;;;2.05;1.77;;;17.30;54.10;;;;;;5102207;28;20046;-36
2021/04/24 00:35:42;;;;;;;2.20;2.00;;;17.30;54.20;;;;;;5103199;28;20020;-36
2021/04/24 00:38:09;;;;;;;2.95;2.25;;;17.30;54.30;;;;;;5105931;28;20039;-36
2021/04/24 00:40:35;;;;;;;2.13;1.67;;;17.30;54.40;;;;;;5105911;28;20039;-36
2021/04/24 00:43:01;;;;;;;2.45;2.10;;;17.30;54.40;;;;;;5105760;28;20044;-36
2021/04/24 00:45:27;;;;;;;2.38;2.08;;;17.30;54.40;;;;;;5087503;28;20473;-36
2021/04/24 00:47:54;;;;;;;2.10;1.90;;;17.30;54.40;;;;;;5105879;28;20024;-37
2021/04/24 00:50:26;;;;;;;2.28;2.05;;;17.30;54.40;;;;;;5105571;28;20042;-36
2021/04/24 00:52:52;;;;;;;2.10;1.90;;;17.30;54.30;;;;;;5105676;28;20063;-36
2021/04/24 00:55:19;;;;;;;2.30;1.80;;;17.20;54.30;;;;;;5105598;28;20055;-36
2021/04/24 00:57:45;;;;;;;2.10;1.88;;;17.20;54.20;;;;;;5087094;28;20024;-36
2021/04/24 01:00:12;;;;;;;3.33;2.17;;;17.20;54.10;;;;;;5087671;28;20039;-36
2021/04/24 01:02:39;;;;;;;2.30;2.10;;;17.20;54.00;;;;;;5105390;28;20024;-36
2021/04/24 01:05:13;;;;;;;2.10;1.90;;;17.20;54.00;;;;;;5105475;28;20031;-36
2021/04/24 01:07:40;;;;;;;2.28;1.92;;;17.20;54.60;;;;;;5105516;28;20322;-36
2021/04/24 01:10:06;;;;;;;;;;;17.20;54.00;;;;;;5070704;28;20032;-36
2021/04/24 01:12:32;;;;;;;2.30;2.00;;;17.20;54.30;;;;;;5104907;28;19904;-36
2021/04/24 01:14:58;;;;;;;2.67;2.17;;;17.20;54.20;;;;;;5105474;28;20024;-36
2021/04/24 01:17:25;;;;;;;2.75;2.50;;;17.20;54.20;;;;;;5105268;28;20016;-36
2021/04/24 01:19:51;;;;;;;3.25;2.28;;;17.20;54.10;;;;;;5105348;28;20105;-36
2021/04/24 01:22:17;;;;;;;2.50;2.15;;;17.20;54.20;;;;;;5101492;28;20074;-36
2021/04/24 01:24:43;;;;;;;2.50;2.30;;;17.10;54.10;;;;;;5084921;28;20059;-36
2021/04/24 01:27:09;;;;;;;3.00;2.25;;;17.10;54.10;;;;;;5099921;28;20048;-36
2021/04/24 01:29:37;;;;;;;2.55;2.28;;;17.10;54.20;;;;;;5084665;28;20117;-36
2021/04/24 01:32:03;;;;;;;2.85;2.30;;;17.10;54.20;;;;;;5084893;28;20017;-36
2021/04/24 01:34:30;;;;;;;3.33;2.42;;;17.10;54.30;;;;;;5084738;28;20044;-36
2021/04/24 01:36:56;;;;;;;2.80;2.03;;;17.10;54.30;;;;;;5117077;28;20050;-36
2021/04/24 01:39:23;;;;;;;2.50;2.30;;;17.10;54.50;;;;;;5088212;28;20043;-36
2021/04/24 01:41:49;;;;;;;2.67;2.35;;;17.10;54.80;;;;;;5116412;28;20036;-36
2021/04/24 01:44:15;;;;;;;3.30;2.70;;;17.10;55.50;;;;;;5095997;28;20035;-36
2021/04/24 01:46:41;;;;;;;2.85;2.55;;;17.10;55.80;;;;;;5096453;28;20023;-36
2021/04/24 01:49:07;;;;;;;2.70;2.22;;;17.10;56.00;;;;;;5096422;28;20073;-36
2021/04/24 01:51:34;;;;;;;3.05;2.60;;;17.10;56.20;;;;;;5097239;28;20131;-36
2021/04/24 01:54:00;;;;;;;3.35;2.58;;;17.00;56.40;;;;;;5096163;28;20020;-35
2021/04/24 01:56:26;;;;;;;3.15;2.80;;;17.00;56.20;;;;;;5096359;28;20043;-36
2021/04/24 01:58:52;;;;;;;3.67;2.83;;;17.00;55.60;;;;;;5097675;28;20039;-36
2021/04/24 02:01:18;;;;;;;3.00;2.58;;;17.00;55.80;;;;;;5096660;28;20028;-35
2021/04/24 02:03:48;;;;;;;3.08;2.72;;;17.00;55.50;;;;;;5096631;28;20024;-36
2021/04/24 02:06:14;;;;;;;3.05;2.70;;;17.00;55.40;;;;;;5096763;28;20040;-37
2021/04/24 02:08:42;;;;;;;4.20;3.15;;;17.00;55.30;;;;;;5095820;28;20048;-36
2021/04/24 02:11:09;;;;;;;4.30;2.72;;;17.00;55.40;;;;;;5096856;28;20048;-36
2021/04/24 02:13:36;;;;;;;3.40;2.70;;;17.00;55.60;;;;;;5103970;28;20024;-37
2021/04/24 02:16:05;;;;;;;2.83;2.58;;;17.00;55.80;;;;;;5104389;28;20112;-36
2021/04/24 02:18:32;;;;;;;4.30;2.88;;;17.00;55.50;;;;;;5085711;28;20044;-36
2021/04/24 02:20:58;;;;;;;3.28;2.80;;;17.00;55.20;;;;;;5104080;28;20039;-35
2021/04/24 02:23:24;;;;;;;3.55;2.80;;;16.90;55.30;;;;;;5100816;28;20024;-36
2021/04/24 02:25:50;;;;;;;3.35;2.72;;;16.90;55.40;;;;;;5092639;28;20036;-35
2021/04/24 02:28:17;;;;;;;4.32;2.88;;;16.90;55.70;;;;;;5083215;28;20118;-36
2021/04/24 02:30:44;;;;;;;4.32;2.88;;;16.90;55.50;;;;;;5083597;28;20093;-36
2021/04/24 02:33:10;;;;;;;3.50;2.92;;;16.90;55.60;;;;;;5083625;28;20036;-36
2021/04/24 02:35:56;;;;;;;4.47;3.17;;;16.90;55.60;;;;;;5083220;28;20036;-36
2021/04/24 02:38:30;;;;;;;3.65;3.13;;;16.90;55.70;;;;;;5079315;28;20684;-36
2021/04/24 02:40:58;;;;;;;2.92;2.63;;;16.90;55.50;;;;;;5113285;28;20027;-36
2021/04/24 02:43:24;;;;;;;3.83;3.03;;;16.90;55.30;;;;;;5105751;28;20548;-37
2021/04/24 02:45:50;;;;;;;4.05;3.15;;;16.90;55.10;;;;;;5106433;28;20032;-36
2021/04/24 02:48:17;;;;;;;2.83;2.53;;;16.90;54.90;;;;;;5103200;28;20077;-36
2021/04/24 02:50:43;;;;;;;3.50;2.70;;;16.90;55.10;;;;;;5107034;28;20048;-36
2021/04/24 02:53:09;;;;;;;3.10;2.80;;;16.90;55.20;;;;;;5109774;28;20054;-36
2021/04/24 02:55:36;;;;;;;3.95;2.95;;;16.80;55.30;;;;;;5107278;28;20040;-36
2021/04/24 02:58:03;;;;;;;4.45;3.17;;;16.80;55.50;;;;;;5108186;28;20028;-35
2021/04/24 03:00:29;;;;;;;3.85;3.10;;;16.80;55.50;;;;;;5105041;28;20058;-36
2021/04/24 03:02:59;;;;;;;3.70;3.10;;;16.80;55.70;;;;;;5105899;28;20119;-36
2021/04/24 03:05:25;;;;;;;3.67;3.10;;;16.80;55.60;;;;;;5104997;28;20038;-36
2021/04/24 03:07:52;;;;;;;5.18;3.08;;;16.80;55.50;;;;;;5110148;28;20046;-38
2021/04/24 03:10:18;;;;;;;3.80;3.38;;;16.80;55.50;;;;;;5128683;27;20031;-36
2021/04/24 03:12:44;;;;;;;4.57;3.35;;;16.80;55.50;;;;;;5122658;27;20162;-37
2021/04/24 03:15:10;;;;;;;3.65;3.25;;;16.80;55.50;;;;;;5123650;28;20032;-36
2021/04/24 03:17:37;;;;;;;4.78;3.47;;;16.80;55.50;;;;;;5123346;28;20024;-36
2021/04/24 03:20:09;;;;;;;3.72;2.97;;;16.70;55.50;;;;;;5123544;28;20020;-36
2021/04/24 03:22:35;;;;;;;4.63;3.47;;;16.70;55.40;;;;;;5105168;28;20023;-36
2021/04/24 03:25:02;;;;;;;4.20;3.28;;;16.70;55.50;;;;;;5123407;28;20027;-37
2021/04/24 03:27:28;;;;;;;5.70;3.20;;;16.70;55.30;;;;;;5122805;28;20130;-36
2021/04/24 03:29:54;;;;;;;4.25;3.40;;;16.70;55.40;;;;;;5123382;28;20040;-36
2021/04/24 03:32:21;;;;;;;3.20;2.90;;;16.70;55.30;;;;;;5123177;28;20035;-36
2021/04/24 03:34:47;;;;;;;4.72;3.47;;;16.70;55.30;;;;;;5123267;28;20046;-35
2021/04/24 03:37:13;;;;;;;3.60;3.17;;;16.70;55.10;;;;;;5123241;28;20027;-36
2021/04/24 03:39:39;;;;;;;5.63;3.38;;;16.70;54.80;;;;;;5131498;27;20047;-36
2021/04/24 03:42:06;;;;;;;3.85;3.10;;;16.70;54.60;;;;;;5122531;28;20039;-35
2021/04/24 03:44:32;;;;;;;4.30;3.20;;;16.70;54.40;;;;;;5124142;27;20053;-37
2021/04/24 03:46:58;;;;;;;3.78;3.13;;;16.70;55.00;;;;;;5126401;28;20061;-36
2021/04/24 03:49:24;;;;;;;4.07;3.13;;;16.70;54.50;;;;;;5131157;28;20050;-36
2021/04/24 03:51:50;;;;;;;3.85;3.13;;;16.70;54.50;;;;;;5124830;28;20035;-36
2021/04/24 03:54:17;;;;;;;4.13;3.35;;;16.70;54.60;;;;;;5125708;28;20032;-36
2021/04/24 03:56:43;;;;;;;4.45;3.30;;;16.70;54.60;;;;;;5127399;28;20027;-35
2021/04/24 03:59:09;;;;;;;4.63;3.30;;;16.70;54.60;;;;;;5124777;28;20318;-36
2021/04/24 04:01:35;;;;;;;4.88;3.63;;;16.70;54.60;;;;;;5130778;28;20031;-36
2021/04/24 04:04:01;;;;;;;4.20;3.08;;;16.60;54.70;;;;;;5126572;28;20098;-35
2021/04/24 04:06:27;;;;;;;4.90;3.30;;;16.60;54.60;;;;;;5127749;28;20361;-36
2021/04/24 04:08:54;;;;;;;5.45;3.72;;;16.60;54.70;;;;;;5123505;28;20059;-36
2021/04/24 04:11:20;;;;;;;4.47;3.58;;;16.60;54.60;;;;;;5131639;27;20125;-36
2021/04/24 04:13:46;;;;;;;4.50;3.60;;;16.60;54.70;;;;;;5147423;27;20023;-36
2021/04/24 04:16:12;;;;;;;5.05;3.67;;;16.60;54.80;;;;;;5136072;27;20030;-36
2021/04/24 04:18:38;;;;;;;4.35;3.50;;;16.60;54.60;;;;;;5126629;28;20034;-36
2021/04/24 04:21:06;;;;;;;5.28;3.53;;;16.60;54.70;;;;;;5126808;28;20051;-36
2021/04/24 04:23:32;;;;;;;;;;;16.60;54.50;;;;;;5113070;28;20053;-36
2021/04/24 04:25:58;;;;;;;5.13;3.28;;;16.50;54.60;;;;;;5106434;28;19998;-36
2021/04/24 04:28:25;;;;;;;5.07;3.83;;;16.50;54.60;;;;;;5119762;27;20016;-36
2021/04/24 04:30:52;;;;;;;4.73;3.37;;;16.50;54.60;;;;;;5126367;28;20047;-36
2021/04/24 04:33:19;;;;;;;4.80;3.30;;;16.50;54.70;;;;;;5126502;28;20503;-36
2021/04/24 04:35:45;;;;;;;3.90;3.15;;;16.50;54.60;;;;;;5126726;28;20594;-36
2021/04/24 04:38:11;;;;;;;3.92;3.50;;;16.50;54.60;;;;;;5126555;28;20019;-37
2021/04/24 04:40:37;;;;;;;4.85;3.20;;;16.50;54.60;;;;;;5138520;27;20080;-36
2021/04/24 04:43:04;;;;;;;3.50;3.08;;;16.50;54.60;;;;;;5146276;27;20031;-36
2021/04/24 04:45:30;;;;;;;4.75;3.53;;;16.50;54.50;;;;;;5128611;27;20023;-36
2021/04/24 04:47:57;;;;;;;3.65;3.25;;;16.50;54.50;;;;;;5146780;27;20369;-35
2021/04/24 04:50:25;;;;;;;5.03;3.50;;;16.50;54.50;;;;;;5146575;27;20066;-36
2021/04/24 04:52:51;;;;;;;4.53;3.65;;;16.50;54.50;;;;;;5138184;27;20020;-36
2021/04/24 04:55:18;;;;;;;4.18;3.38;;;16.40;54.50;;;;;;5126134;28;20091;-36
2021/04/24 04:57:45;;;;;;;4.63;3.60;;;16.40;54.50;;;;;;5129994;27;20034;-36
2021/04/24 05:00:12;;;;;;;;;;;16.40;54.60;;;;;;5144853;27;20031;-36
2021/04/24 05:02:39;;;;;;;4.40;3.00;;;16.40;54.50;;;;;;5146701;27;19948;-36
2021/04/24 05:05:06;;;;;;;5.50;3.45;;;16.40;54.60;;;;;;5128095;27;20562;-35
2021/04/24 05:07:32;;;;;;;4.70;3.17;;;16.40;54.60;;;;;;5146491;27;20028;-37
2021/04/24 05:09:58;;;;;;;4.03;3.33;;;16.40;54.60;;;;;;5139216;27;20039;-36
2021/04/24 05:12:24;;;;;;;4.97;3.45;;;16.40;54.70;;;;;;5126394;27;20032;-36
2021/04/24 05:14:50;;;;;;;4.00;3.10;;;16.30;54.70;;;;;;5128702;27;20060;-36
2021/04/24 05:17:16;;;;;;;3.67;3.33;;;16.30;54.60;;;;;;5131316;27;20043;-36
2021/04/24 05:19:43;;;;;;;3.70;3.28;;;16.30;54.70;;;;;;5113061;27;20071;-36
2021/04/24 05:22:09;;;;;;;3.95;3.28;;;16.30;54.70;;;;;;5129495;27;20027;-36
2021/04/24 05:24:35;;;;;;;4.03;3.35;;;16.30;54.70;;;;;;5129970;27;20027;-35
2021/04/24 05:27:01;;;;;;;4.60;3.55;;;16.30;54.70;;;;;;5129781;27;20053;-35
2021/04/24 05:29:28;;;;;;;4.60;3.65;;;16.30;54.80;;;;;;5131325;27;20025;-38
2021/04/24 05:31:54;;;;;;;4.20;3.10;;;16.30;54.80;;;;;;5132712;27;20099;-36
2021/04/24 05:34:20;;;;;;;4.47;3.33;;;16.30;54.80;;;;;;5129969;27;20024;-36
2021/04/24 05:36:47;;;;;;;4.00;3.38;;;16.30;54.80;;;;;;5129130;27;20027;-36
2021/04/24 05:39:13;;;;;;;4.75;3.22;;;16.30;54.80;;;;;;5109888;27;20027;-39
2021/04/24 05:41:39;;;;;;;3.70;3.30;;;16.30;54.80;;;;;;5129763;27;20342;-36
2021/04/24 05:44:06;;;;;;;3.80;3.17;;;16.30;54.80;;;;;;5138307;27;20027;-36
2021/04/24 05:46:32;;;;;;;5.25;3.20;;;16.30;54.80;;;;;;5145786;27;20046;-36
2021/04/24 05:48:58;;;;;;;4.05;3.40;;;16.30;54.80;;;;;;5127243;27;20045;-36
2021/04/24 05:51:24;;;;;;;4.43;3.78;;;16.30;54.80;;;;;;5145295;27;20059;-36
2021/04/24 05:53:51;;;;;;;3.92;3.33;;;16.30;54.80;;;;;;5128515;27;20024;-36
2021/04/24 05:56:17;;;;;;;4.18;3.33;;;16.30;54.90;;;;;;5124893;28;20036;-36
2021/04/24 05:58:44;;;;;;;2.63;2.40;;;16.20;54.80;;;;;;5128602;27;20064;-36
2021/04/24 06:01:10;;;;;;;4.35;3.35;;;16.20;54.80;;;;;;5130510;27;20670;-36
2021/04/24 06:03:36;;;;;;;3.83;3.10;;;16.20;54.80;;;;;;5130957;27;20057;-36
2021/04/24 06:06:03;;;;;;;4.30;3.58;;;16.20;54.90;;;;;;5128317;27;20043;-36
2021/04/24 06:08:35;;;;;;;4.00;3.58;;;16.20;55.00;;;;;;5129077;27;20051;-36
2021/04/24 06:11:01;;;;;;;5.18;3.70;;;16.20;54.90;;;;;;5127738;27;20043;-36
2021/04/24 06:13:27;;;;;;;4.35;3.17;;;16.20;54.90;;;;;;5128164;27;20108;-35
2021/04/24 06:15:54;;;;;;;4.25;3.47;;;16.20;55.00;;;;;;5129607;27;20027;-36
2021/04/24 06:18:20;;;;;;;4.17;3.77;;;16.20;55.00;;;;;;5125145;27;20023;-37
2021/04/24 06:20:46;;;;;;;4.45;3.45;;;16.20;55.00;;;;;;5123620;27;20034;-36
2021/04/24 06:23:12;;;;;;;5.15;3.60;;;16.20;55.00;;;;;;5127547;27;20019;-36
2021/04/24 06:25:39;;;;;;;4.50;3.63;;;16.20;55.00;;;;;;5124492;27;20031;-36
2021/04/24 06:28:05;;;;;;;4.35;3.65;;;16.20;55.00;;;;;;5128223;27;20109;-36
2021/04/24 06:30:31;;;;;;;4.35;3.55;;;16.20;55.00;;;;;;5123785;28;20043;-36
2021/04/24 06:32:57;;;;;;;4.47;3.58;;;16.20;55.00;;;;;;5123888;28;20054;-36
2021/04/24 06:35:25;;;;;;;3.40;2.97;;;16.20;55.00;;;;;;5124103;28;20107;-36
2021/04/24 06:37:52;;;;;;;3.63;3.30;;;16.10;55.00;;;;;;5124175;28;20140;-37
2021/04/24 06:40:18;;;;;;;4.25;3.70;;;16.10;55.00;;;;;;5133479;27;20019;-36
2021/04/24 06:42:44;;;;;;;4.18;3.45;;;16.10;55.00;;;;;;5144456;27;20079;-36
2021/04/24 06:45:11;;;;;;;4.72;3.30;;;16.10;55.00;;;;;;5144448;27;20474;-36
2021/04/24 06:47:37;;;;;;;3.88;3.33;;;16.10;55.00;;;;;;5144517;27;20111;-36
2021/04/24 06:50:04;;;;;;;4.82;3.70;;;16.10;55.10;;;;;;5143921;27;20099;-36
2021/04/24 06:52:30;;;;;;;5.18;3.80;;;16.10;55.00;;;;;;5138881;27;20107;-36
2021/04/24 06:54:56;;;;;;;3.80;3.38;;;16.10;55.10;;;;;;5144501;27;20422;-36
2021/04/24 06:57:23;;;;;;;4.10;3.38;;;16.10;55.10;;;;;;5142408;27;20031;-36
2021/04/24 06:59:49;;;;;;;3.70;3.35;;;16.10;55.10;;;;;;5123632;28;20349;-36
2021/04/24 07:02:17;;;;;;;4.18;3.30;;;16.10;55.10;;;;;;5123320;28;20023;-36
2021/04/24 07:04:43;;;;;;;3.80;3.20;;;16.10;55.10;;;;;;5123595;28;20020;-36
2021/04/24 07:07:09;;;;;;;4.03;3.40;;;16.10;55.10;;;;;;5115144;28;20043;-36
2021/04/24 07:09:36;;;;;;;4.47;3.25;;;16.10;55.20;;;;;;5126942;27;20051;-36
2021/04/24 07:12:05;;;;;;;5.32;3.33;;;16.10;55.20;;;;;;5143610;27;20127;-36
2021/04/24 07:14:31;;;;;;;4.40;3.60;;;16.10;55.20;;;;;;5143848;27;20399;-36
2021/04/24 07:16:57;;;;;;;3.95;3.50;;;16.00;55.10;;;;;;5143965;27;20027;-36
2021/04/24 07:19:24;;;;;;;3.80;3.40;;;16.00;55.10;;;;;;5143863;27;20062;-36
2021/04/24 07:21:50;;;;;;;4.30;3.45;;;16.00;55.20;;;;;;5143379;27;20031;-36
2021/04/24 07:24:16;;;;;;;4.30;3.60;;;16.00;55.20;;;;;;5122568;28;20024;-35
2021/04/24 07:26:43;;;;;;;3.67;3.33;;;16.00;55.20;;;;;;5123194;28;20611;-36
2021/04/24 07:29:09;;;;;;;3.80;3.40;;;16.00;55.20;;;;;;5139822;27;20026;-36
2021/04/24 07:31:35;;;;;;;3.58;3.28;;;16.00;55.20;;;;;;5143702;27;20095;-36
2021/04/24 07:34:01;;;;;;;3.78;3.38;;;16.00;55.20;;;;;;5143768;27;20024;-35
2021/04/24 07:36:28;;;;;;;5.15;3.42;;;16.00;55.20;;;;;;5143775;27;20023;-36
2021/04/24 07:38:56;;;;;;;4.22;3.58;;;16.00;55.20;;;;;;5125196;27;20026;-35
2021/04/24 07:41:22;;;;;;;;;;;16.00;55.20;;;;;;5124908;27;20032;-36
2021/04/24 07:43:48;;;;;;;3.30;3.00;;;16.00;55.20;;;;;;5134112;27;19929;-36
2021/04/24 07:46:14;;;;;;;3.75;3.03;;;16.00;55.30;;;;;;5140510;27;20031;-35
2021/04/24 07:48:40;;;;;;;4.82;3.60;;;16.00;55.30;;;;;;5124602;28;20147;-36
2021/04/24 07:51:06;;;;;;;3.42;3.03;;;16.00;55.30;;;;;;5122408;28;20039;-36
2021/04/24 07:53:33;;;;;;;3.28;2.95;;;16.00;55.30;;;;;;5122899;28;20114;-36
2021/04/24 07:55:59;;;;;;;4.03;3.38;;;16.00;55.30;;;;;;5122941;28;20459;-37
2021/04/24 07:58:25;;;;;;;4.72;3.40;;;16.00;55.40;;;;;;5133359;28;20023;-36
2021/04/24 08:00:51;;;;;;;3.65;3.17;;;16.00;55.40;;;;;;5143533;28;20034;-36
2021/04/24 08:03:17;;;;;;;3.67;2.75;;;15.90;55.40;;;;;;5143206;28;20053;-36
2021/04/24 08:05:43;;;;;;;4.07;3.17;;;15.90;55.40;;;;;;5143432;28;20127;-36
2021/04/24 08:08:10;;;;;;;4.15;3.55;;;15.90;55.30;;;;;;5143409;28;20050;-37
2021/04/24 08:10:36;;;;;;;3.53;3.08;;;15.90;55.30;;;;;;5130619;28;20039;-36
2021/04/24 08:13:03;;;;;;;3.80;3.25;;;15.90;55.30;;;;;;5122230;28;20054;-36
2021/04/24 08:15:30;;;;;;;3.85;3.35;;;15.90;55.40;;;;;;5122838;28;20059;-36
2021/04/24 08:17:56;;;;;;;3.45;2.95;;;15.90;55.40;;;;;;5122666;28;20475;-36
2021/04/24 08:20:22;;;;;;;3.75;3.35;;;15.90;55.40;;;;;;5138435;28;20032;-36
2021/04/24 08:22:48;;;;;;;4.15;3.67;;;15.90;55.40;;;;;;5129969;28;20077;-36
2021/04/24 08:25:15;;;;;;;3.17;2.88;;;15.90;55.50;;;;;;5143215;28;20027;-36
2021/04/24 08:27:41;;;;;;;4.75;3.55;;;15.90;55.60;;;;;;5138711;28;20027;-37
2021/04/24 08:30:09;;;;;;;4.13;3.22;;;15.90;55.50;;;;;;5122385;28;20028;-36
2021/04/24 08:32:36;;;;;;;4.57;3.60;;;15.90;55.50;;;;;;5122320;28;20032;-36
2021/04/24 08:35:04;;;;;;;3.70;3.05;;;15.90;55.50;;;;;;5104358;28;20026;-36
2021/04/24 08:37:30;;;;;;;;;;;15.90;55.50;;;;;;5122968;28;20056;-40
2021/04/24 08:39:56;;;;;;;4.28;2.97;;;15.90;55.60;;;;;;5128938;28;19975;-36
2021/04/24 08:42:22;;;;;;;3.75;3.20;;;15.90;55.60;;;;;;5142798;28;20061;-37
2021/04/24 08:44:51;;;;;;;4.10;3.10;;;15.90;55.60;;;;;;5142683;28;20023;-36
2021/04/24 08:47:22;;;;;;;3.38;3.08;;;15.90;55.60;;;;;;5142997;28;20026;-37
2021/04/24 08:49:50;;;;;;;3.40;3.10;;;15.90;55.60;;;;;;5124799;28;20107;-36
2021/04/24 08:52:19;;;;;;;3.40;2.90;;;15.90;55.70;;;;;;5139216;28;20069;-36
2021/04/24 08:54:45;;;;;;;3.67;3.28;;;15.90;55.70;;;;;;5122620;28;20045;-36
2021/04/24 08:57:11;;;;;;;3.95;3.20;;;15.90;55.80;;;;;;5124274;28;20115;-38
2021/04/24 08:59:37;;;;;;;3.85;3.10;;;15.90;55.80;;;;;;5146394;27;20019;-37
2021/04/24 09:02:04;;;;;;;3.70;3.00;;;15.90;55.70;;;;;;5142952;27;20096;-36
2021/04/24 09:04:30;;;;;;;4.00;3.35;;;15.90;55.70;;;;;;5146595;27;20023;-36
2021/04/24 09:06:57;;;;;;;3.92;3.15;;;15.90;55.80;;;;;;5146608;27;20019;-36
2021/04/24 09:09:27;;;;;;;3.83;3.22;;;15.80;55.80;;;;;;5144211;27;20054;-38
2021/04/24 09:11:56;;;;;;;3.80;3.10;;;15.80;55.80;;;;;;5125523;28;20067;-36
2021/04/24 09:14:26;;;;;;;4.13;3.22;;;15.80;55.80;;;;;;5106599;28;20034;-36
2021/04/24 09:16:52;;;;;;;4.07;3.22;;;15.80;55.90;;;;;;5125566;28;20023;-36
2021/04/24 09:19:35;;;;;;;4.10;3.30;;;15.80;55.90;;;;;;5125585;28;20024;-36
2021/04/24 09:22:23;;;;;;;3.10;2.78;;;15.80;55.90;;;;;;5125552;27;20032;-36
2021/04/24 09:24:50;;;;;;;3.55;3.03;;;15.80;55.90;;;;;;5125396;27;20128;-36
2021/04/24 09:27:16;;;;;;;;;;;15.80;55.90;;;;;;5126886;27;20040;-37
2021/04/24 09:29:42;;;;;;;3.97;3.33;;;15.80;56.00;;;;;;5145822;27;20324;-36
2021/04/24 09:32:19;;;;;;;3.40;2.97;;;15.80;56.00;;;;;;5145973;27;20045;-36
2021/04/24 09:34:49;;;;;;;3.47;3.17;;;15.80;56.00;;;;;;5145902;27;20023;-37
2021/04/24 09:37:22;;;;;;;3.63;3.20;;;15.80;56.00;;;;;;5137031;27;20077;-36
2021/04/24 09:39:50;;;;;;;3.97;3.22;;;15.80;55.90;;;;;;5130846;27;20035;-38
2021/04/24 09:42:37;;;;;;;4.00;2.95;;;15.80;56.00;;;;;;5145847;27;20073;-36
2021/04/24 09:45:22;;;;;;;4.40;3.13;;;15.80;56.00;;;;;;5145947;27;20031;-38
2021/04/24 09:47:49;;;;;;;4.68;3.50;;;15.80;56.10;;;;;;5145538;27;20117;-36
2021/04/24 09:50:17;;;;;;;3.40;3.10;;;15.80;56.10;;;;;;5126904;27;20027;-36
2021/04/24 09:52:43;;;;;;;2.83;2.60;;;15.80;56.00;;;;;;5124886;28;20023;-36
2021/04/24 09:55:17;;;;;;;3.53;2.92;;;15.80;56.00;;;;;;5106903;27;20024;-36
2021/04/24 09:57:43;;;;;;;3.40;3.10;;;15.80;56.00;;;;;;5119639;28;20682;-37
2021/04/24 10:00:14;;;;;;;3.05;2.60;;;15.80;56.10;;;;;;5124846;28;20031;-36
2021/04/24 10:02:45;;;;;;;4.07;3.40;;;15.70;56.10;;;;;;5124707;28;20032;-36
2021/04/24 10:05:21;;;;;;;3.30;2.83;;;15.80;56.10;;;;;;5124461;28;20523;-39
2021/04/24 10:07:55;;;;;;;4.88;3.38;;;15.80;56.20;;;;;;5123989;28;20057;-38
2021/04/24 10:10:25;;;;;;;4.63;3.33;;;15.70;56.20;;;;;;5134543;27;20066;-37
2021/04/24 10:12:59;;;;;;;3.28;2.72;;;15.70;56.20;;;;;;5131506;27;20431;-37
2021/04/24 10:15:34;;;;;;;3.67;3.03;;;15.70;56.20;;;;;;5106004;28;20031;-36
2021/04/24 10:18:00;;;;;;;3.35;3.00;;;15.70;56.20;;;;;;5124322;28;20067;-36
2021/04/24 10:20:26;;;;;;;4.30;3.20;;;15.70;56.30;;;;;;5105911;28;20111;-37
2021/04/24 10:22:52;;;;;;;4.05;3.05;;;15.70;56.40;;;;;;5097281;28;20045;-37
2021/04/24 10:25:19;;;;;;;3.78;2.85;;;15.70;56.30;;;;;;5119458;28;20679;-37
2021/04/24 10:27:45;;;;;;;3.65;3.15;;;15.70;56.30;;;;;;5129378;27;20023;-39
2021/04/24 10:30:12;;;;;;;3.65;3.35;;;15.70;56.40;;;;;;5126088;27;20104;-38
2021/04/24 10:32:38;;;;;;;2.47;2.08;;;15.70;56.40;;;;;;5126343;27;20044;-38
2021/04/24 10:35:05;;;;;;;3.72;3.00;;;15.70;56.40;;;;;;5126102;27;20092;-37
2021/04/24 10:37:31;;;;;;;3.22;2.92;;;15.70;56.50;;;;;;5144861;27;20035;-37
2021/04/24 10:40:01;;;;;;;3.70;2.70;;;15.70;56.40;;;;;;5137727;27;20036;-37
2021/04/24 10:42:29;;;;;;;3.85;3.20;;;15.70;56.40;;;;;;5105493;28;20031;-37
2021/04/24 10:44:57;;;;;;;3.38;3.03;;;15.70;56.40;;;;;;5105438;28;20106;-39
2021/04/24 10:47:41;;;;;;;3.25;2.95;;;15.70;56.40;;;;;;5123750;28;20087;-38
2021/04/24 10:50:21;;;;;;;3.25;2.95;;;15.70;56.40;;;;;;5123740;28;20039;-38
2021/04/24 10:52:47;;;;;;;3.80;3.05;;;15.70;56.50;;;;;;5123720;28;20057;-38
2021/04/24 10:55:13;;;;;;;3.53;2.72;;;15.70;56.60;;;;;;5123417;28;20034;-38
2021/04/24 10:57:41;;;;;;;3.55;3.10;;;15.70;56.60;;;;;;5128065;27;20077;-38
2021/04/24 11:00:21;;;;;;;3.75;3.03;;;15.70;56.60;;;;;;5144135;27;20091;-37
2021/04/24 11:02:54;;;;;;;3.65;3.05;;;15.70;56.60;;;;;;5144342;27;20034;-38
2021/04/24 11:05:27;;;;;;;3.38;3.08;;;15.60;56.60;;;;;;5144028;27;20054;-37
2021/04/24 11:08:08;;;;;;;3.20;2.70;;;15.60;56.70;;;;;;5139713;27;20047;-37
2021/04/24 11:11:01;;;;;;;3.60;2.80;;;15.60;56.70;;;;;;5131086;27;20039;-38
2021/04/24 11:13:32;;;;;;;4.00;3.03;;;15.60;56.70;;;;;;5123527;28;20028;-38
2021/04/24 11:15:59;;;;;;;3.38;2.95;;;15.60;56.80;;;;;;5123220;28;20023;-38
2021/04/24 11:18:25;;;;;;;3.95;3.38;;;15.60;56.90;;;;;;5105214;28;20124;-38
2021/04/24 11:20:52;;;;;;;3.55;3.05;;;15.60;56.90;;;;;;5123223;28;20027;-38
2021/04/24 11:23:31;;;;;;;3.25;2.95;;;15.60;56.90;;;;;;5123409;28;20069;-38
2021/04/24 11:25:57;;;;;;;3.42;3.10;;;15.60;56.80;;;;;;5122791;28;20091;-38
2021/04/24 11:28:24;;;;;;;3.05;2.67;;;15.60;57.00;;;;;;5123224;28;20107;-38
2021/04/24 11:30:58;;;;;;;3.65;3.13;;;15.60;57.00;;;;;;5104989;28;20096;-38
2021/04/24 11:33:44;;;;;;;3.28;2.97;;;15.60;56.90;;;;;;5123151;28;20034;-40
2021/04/24 11:36:21;;;;;;;2.92;2.50;;;15.60;57.00;;;;;;5129055;27;20474;-38
2021/04/24 11:38:57;;;;;;;3.70;3.10;;;15.60;57.00;;;;;;5143643;27;20082;-39
2021/04/24 11:41:49;;;;;;;3.63;2.97;;;15.60;57.00;;;;;;5124579;28;20121;-37
2021/04/24 11:44:18;;;;;;;3.38;2.70;;;15.60;57.10;;;;;;5124925;27;20076;-43
2021/04/24 11:46:48;;;;;;;3.40;2.80;;;15.60;57.10;;;;;;5143554;27;20483;-38
2021/04/24 11:49:18;;;;;;;3.03;2.60;;;15.60;57.10;;;;;;5128382;27;20023;-38
2021/04/24 11:51:46;;;;;;;3.83;3.00;;;15.60;57.10;;;;;;5122847;28;20050;-38
2021/04/24 11:54:35;;;;;;;3.97;3.22;;;15.60;57.10;;;;;;5122810;28;20047;-38
2021/04/24 11:57:05;;;;;;;3.75;3.10;;;15.60;57.10;;;;;;5123063;28;20082;-38
2021/04/24 11:59:35;;;;;;;3.42;3.13;;;15.60;57.20;;;;;;5122806;28;20096;-38
2021/04/24 12:02:18;;;;;;;3.20;2.78;;;15.60;57.30;;;;;;5122910;28;20028;-37
2021/04/24 12:04:45;;;;;;;4.03;3.15;;;15.60;57.30;;;;;;5122794;28;20035;-41
2021/04/24 12:07:12;;;;;;;3.08;2.17;;;15.60;57.30;;;;;;5107462;28;20039;-38
2021/04/24 12:09:47;;;;;;;3.67;2.92;;;15.60;57.50;;;;;;5092143;28;20055;-38
2021/04/24 12:12:15;;;;;;;3.53;2.90;;;15.60;57.50;;;;;;5124725;28;20590;-40
2021/04/24 12:14:41;;;;;;;3.90;2.88;;;15.60;57.50;;;;;;5122311;28;20036;-38
2021/04/24 12:17:11;;;;;;;3.00;2.60;;;15.60;57.60;;;;;;5122608;28;20622;-38
2021/04/24 12:19:39;;;;;;;3.83;3.10;;;15.60;57.70;;;;;;5122596;28;20110;-38
2021/04/24 12:22:12;;;;;;;6.63;3.13;;;15.60;57.60;;;;;;5136298;28;20527;-38
2021/04/24 12:24:58;;;;;;;3.85;2.90;;;15.60;57.70;;;;;;5101961;28;20092;-38
2021/04/24 12:27:46;;;;;;;4.65;3.00;;;15.60;57.80;;;;;;5102142;28;20034;-38
2021/04/24 12:30:18;;;;;;;3.65;2.53;;;15.60;57.70;;;;;;5115802;28;20032;-39
2021/04/24 12:32:55;;;;;;;3.20;2.90;;;15.60;57.90;;;;;;5104840;28;20028;-38
2021/04/24 12:35:25;;;;;;;4.13;2.88;;;15.60;57.80;;;;;;5105878;28;20028;-38
2021/04/24 12:38:15;;;;;;;3.30;2.80;;;15.60;57.70;;;;;;5105929;28;20031;-38
2021/04/24 12:40:43;;;;;;;3.72;2.47;;;15.60;57.80;;;;;;5107042;28;20039;-39
2021/04/24 12:43:11;;;;;;;4.72;2.65;;;15.60;57.80;;;;;;5107766;28;20042;-38
2021/04/24 12:45:38;;;;;;;3.10;2.67;;;15.60;57.80;;;;;;5126063;28;20106;-39
2021/04/24 12:48:11;;;;;;;4.57;3.00;;;15.60;57.80;;;;;;5126346;28;20027;-39
2021/04/24 12:50:39;;;;;;;3.95;3.10;;;15.60;57.90;;;;;;5108858;28;20621;-39
2021/04/24 12:53:06;;;;;;;2.85;2.45;;;15.60;57.90;;;;;;5115725;28;20028;-38